sensor_id;sensor_type;location;lat;lon;timestamp;temperature;humidity
80540;DHT22;69869;48.036;15.780;2024-01-16T00:01:59;10.80;75.70
80540;DHT22;69869;48.036;15.780;2024-01-16T00:04:24;10.80;75.70
80540;DHT22;69869;48.036;15.780;2024-01-16T00:06:52;10.70;75.70
80540;DHT22;69869;48.036;15.780;2024-01-16T00:09:17;10.70;75.60
80540;DHT22;69869;48.036;15.780;2024-01-16T00:11:43;10.80;75.60
80540;DHT22;69869;48.036;15.780;2024-01-16T00:14:09;10.80;75.60
80540;DHT22;69869;48.036;15.780;2024-01-16T00:16:45;10.70;75.50
80540;DHT22;69869;48.036;15.780;2024-01-16T00:19:11;10.70;75.60
80540;DHT22;69869;48.036;15.780;2024-01-16T00:21:44;10.80;75.70
80540;DHT22;69869;48.036;15.780;2024-01-16T00:24:13;10.70;75.50
80540;DHT22;69869;48.036;15.780;2024-01-16T00:26:39;10.70;75.60
80540;DHT22;69869;48.036;15.780;2024-01-16T00:29:05;10.80;75.70
80540;DHT22;69869;48.036;15.780;2024-01-16T00:31:31;10.70;75.40
80540;DHT22;69869;48.036;15.780;2024-01-16T00:33:57;10.80;75.60
80540;DHT22;69869;48.036;15.780;2024-01-16T00:36:22;10.70;75.60
80540;DHT22;69869;48.036;15.780;2024-01-16T00:38:48;10.80;75.70
80540;DHT22;69869;48.036;15.780;2024-01-16T00:41:13;10.80;75.70
80540;DHT22;69869;48.036;15.780;2024-01-16T00:43:43;10.70;75.60
80540;DHT22;69869;48.036;15.780;2024-01-16T00:46:09;10.80;75.60
80540;DHT22;69869;48.036;15.780;2024-01-16T00:48:35;10.80;75.60
80540;DHT22;69869;48.036;15.780;2024-01-16T00:51:00;10.80;75.60
80540;DHT22;69869;48.036;15.780;2024-01-16T00:53:26;10.80;75.50
80540;DHT22;69869;48.036;15.780;2024-01-16T00:55:52;10.70;75.40
80540;DHT22;69869;48.036;15.780;2024-01-16T00:58:21;10.80;75.50
80540;DHT22;69869;48.036;15.780;2024-01-16T01:00:46;10.80;75.40
80540;DHT22;69869;48.036;15.780;2024-01-16T01:03:12;10.70;75.40
80540;DHT22;69869;48.036;15.780;2024-01-16T01:05:38;10.70;75.50
80540;DHT22;69869;48.036;15.780;2024-01-16T01:08:04;10.80;75.60
80540;DHT22;69869;48.036;15.780;2024-01-16T01:10:29;10.70;75.50
80540;DHT22;69869;48.036;15.780;2024-01-16T01:12:55;10.70;75.50
80540;DHT22;69869;48.036;15.780;2024-01-16T01:15:21;10.70;75.50
80540;DHT22;69869;48.036;15.780;2024-01-16T01:17:50;10.70;75.50
80540;DHT22;69869;48.036;15.780;2024-01-16T01:20:17;10.70;75.50
80540;DHT22;69869;48.036;15.780;2024-01-16T01:22:44;10.70;75.60
80540;DHT22;69869;48.036;15.780;2024-01-16T01:25:10;10.70;75.60
80540;DHT22;69869;48.036;15.780;2024-01-16T01:27:37;10.70;75.60
80540;DHT22;69869;48.036;15.780;2024-01-16T01:30:03;10.70;75.60
80540;DHT22;69869;48.036;15.780;2024-01-16T01:32:29;10.70;75.40
80540;DHT22;69869;48.036;15.780;2024-01-16T01:34:58;10.70;75.40
80540;DHT22;69869;48.036;15.780;2024-01-16T01:37:23;10.80;75.40
80540;DHT22;69869;48.036;15.780;2024-01-16T01:39:49;10.70;75.40
80540;DHT22;69869;48.036;15.780;2024-01-16T01:42:15;10.80;75.60
80540;DHT22;69869;48.036;15.780;2024-01-16T01:44:41;10.70;75.50
80540;DHT22;69869;48.036;15.780;2024-01-16T01:47:07;10.70;75.60
80540;DHT22;69869;48.036;15.780;2024-01-16T01:49:34;10.70;75.50
80540;DHT22;69869;48.036;15.780;2024-01-16T01:52:00;10.70;75.60
80540;DHT22;69869;48.036;15.780;2024-01-16T01:54:26;10.70;75.50
80540;DHT22;69869;48.036;15.780;2024-01-16T01:56:52;10.70;75.60
80540;DHT22;69869;48.036;15.780;2024-01-16T01:59:20;10.70;75.50
80540;DHT22;69869;48.036;15.780;2024-01-16T02:01:48;10.70;75.50
80540;DHT22;69869;48.036;15.780;2024-01-16T02:04:15;10.70;76.30
80540;DHT22;69869;48.036;15.780;2024-01-16T02:06:42;10.70;75.50
80540;DHT22;69869;48.036;15.780;2024-01-16T02:09:10;10.80;75.50
80540;DHT22;69869;48.036;15.780;2024-01-16T02:11:35;10.70;75.40
80540;DHT22;69869;48.036;15.780;2024-01-16T02:14:01;10.70;75.50
80540;DHT22;69869;48.036;15.780;2024-01-16T02:16:44;10.70;75.50
80540;DHT22;69869;48.036;15.780;2024-01-16T02:19:10;10.70;75.60
80540;DHT22;69869;48.036;15.780;2024-01-16T02:21:43;10.70;75.50
80540;DHT22;69869;48.036;15.780;2024-01-16T02:24:12;10.70;75.60
80540;DHT22;69869;48.036;15.780;2024-01-16T02:26:38;10.70;75.60
80540;DHT22;69869;48.036;15.780;2024-01-16T02:29:04;10.70;75.60
80540;DHT22;69869;48.036;15.780;2024-01-16T02:31:30;10.70;75.50
80540;DHT22;69869;48.036;15.780;2024-01-16T02:33:56;10.70;75.60
80540;DHT22;69869;48.036;15.780;2024-01-16T02:36:22;10.70;75.40
80540;DHT22;69869;48.036;15.780;2024-01-16T02:38:47;10.70;75.40
80540;DHT22;69869;48.036;15.780;2024-01-16T02:41:14;10.70;75.30
80540;DHT22;69869;48.036;15.780;2024-01-16T02:43:41;10.70;75.40
80540;DHT22;69869;48.036;15.780;2024-01-16T02:46:07;10.70;75.30
80540;DHT22;69869;48.036;15.780;2024-01-16T02:48:34;10.70;75.40
80540;DHT22;69869;48.036;15.780;2024-01-16T02:51:00;10.70;75.40
80540;DHT22;69869;48.036;15.780;2024-01-16T02:53:26;10.70;75.40
80540;DHT22;69869;48.036;15.780;2024-01-16T02:55:53;10.70;75.40
80540;DHT22;69869;48.036;15.780;2024-01-16T02:58:19;10.70;75.40
80540;DHT22;69869;48.036;15.780;2024-01-16T03:00:45;10.70;75.30
80540;DHT22;69869;48.036;15.780;2024-01-16T03:03:11;10.70;75.40
80540;DHT22;69869;48.036;15.780;2024-01-16T03:05:36;10.70;75.50
80540;DHT22;69869;48.036;15.780;2024-01-16T03:08:02;10.70;75.30
80540;DHT22;69869;48.036;15.780;2024-01-16T03:10:28;10.70;75.30
80540;DHT22;69869;48.036;15.780;2024-01-16T03:12:53;10.70;75.40
80540;DHT22;69869;48.036;15.780;2024-01-16T03:15:19;10.70;75.40
80540;DHT22;69869;48.036;15.780;2024-01-16T03:17:45;10.70;75.40
80540;DHT22;69869;48.036;15.780;2024-01-16T03:20:12;10.70;75.20
80540;DHT22;69869;48.036;15.780;2024-01-16T03:22:38;10.80;75.40
80540;DHT22;69869;48.036;15.780;2024-01-16T03:25:04;10.70;75.30
80540;DHT22;69869;48.036;15.780;2024-01-16T03:27:30;10.70;75.30
80540;DHT22;69869;48.036;15.780;2024-01-16T03:29:56;10.70;75.20
80540;DHT22;69869;48.036;15.780;2024-01-16T03:32:21;10.70;75.20
80540;DHT22;69869;48.036;15.780;2024-01-16T03:34:47;10.70;75.20
80540;DHT22;69869;48.036;15.780;2024-01-16T03:37:13;10.70;75.20
80540;DHT22;69869;48.036;15.780;2024-01-16T03:39:38;10.70;75.30
80540;DHT22;69869;48.036;15.780;2024-01-16T03:42:04;10.70;75.20
80540;DHT22;69869;48.036;15.780;2024-01-16T03:44:30;10.70;75.20
80540;DHT22;69869;48.036;15.780;2024-01-16T03:46:55;10.70;75.20
80540;DHT22;69869;48.036;15.780;2024-01-16T03:49:21;10.70;75.20
80540;DHT22;69869;48.036;15.780;2024-01-16T03:51:46;10.80;75.30
80540;DHT22;69869;48.036;15.780;2024-01-16T03:54:13;10.70;75.30
80540;DHT22;69869;48.036;15.780;2024-01-16T03:56:39;10.70;75.20
80540;DHT22;69869;48.036;15.780;2024-01-16T03:59:05;10.70;75.30
80540;DHT22;69869;48.036;15.780;2024-01-16T04:01:32;10.70;75.30
80540;DHT22;69869;48.036;15.780;2024-01-16T04:03:58;10.70;75.40
80540;DHT22;69869;48.036;15.780;2024-01-16T04:06:23;10.70;75.20
80540;DHT22;69869;48.036;15.780;2024-01-16T04:08:49;10.70;75.20
80540;DHT22;69869;48.036;15.780;2024-01-16T04:11:15;10.70;75.20
80540;DHT22;69869;48.036;15.780;2024-01-16T04:13:40;10.70;75.20
80540;DHT22;69869;48.036;15.780;2024-01-16T04:16:06;10.70;75.20
80540;DHT22;69869;48.036;15.780;2024-01-16T04:18:39;10.70;75.20
80540;DHT22;69869;48.036;15.780;2024-01-16T04:21:06;10.70;75.20
80540;DHT22;69869;48.036;15.780;2024-01-16T04:23:32;10.60;75.10
80540;DHT22;69869;48.036;15.780;2024-01-16T04:25:58;10.60;75.10
80540;DHT22;69869;48.036;15.780;2024-01-16T04:28:24;10.70;75.20
80540;DHT22;69869;48.036;15.780;2024-01-16T04:30:50;10.70;75.10
80540;DHT22;69869;48.036;15.780;2024-01-16T04:33:16;10.70;75.10
80540;DHT22;69869;48.036;15.780;2024-01-16T04:35:42;10.70;75.00
80540;DHT22;69869;48.036;15.780;2024-01-16T04:38:10;10.70;75.00
80540;DHT22;69869;48.036;15.780;2024-01-16T04:40:36;10.70;75.10
80540;DHT22;69869;48.036;15.780;2024-01-16T04:43:01;10.70;74.90
80540;DHT22;69869;48.036;15.780;2024-01-16T04:45:28;10.70;75.00
80540;DHT22;69869;48.036;15.780;2024-01-16T04:47:53;10.60;74.90
80540;DHT22;69869;48.036;15.780;2024-01-16T04:50:19;10.70;75.00
80540;DHT22;69869;48.036;15.780;2024-01-16T04:52:45;10.70;75.00
80540;DHT22;69869;48.036;15.780;2024-01-16T04:55:10;10.70;75.10
80540;DHT22;69869;48.036;15.780;2024-01-16T04:57:36;10.70;74.90
80540;DHT22;69869;48.036;15.780;2024-01-16T05:00:02;10.70;75.00
80540;DHT22;69869;48.036;15.780;2024-01-16T05:02:32;10.60;74.90
80540;DHT22;69869;48.036;15.780;2024-01-16T05:04:58;10.70;75.10
80540;DHT22;69869;48.036;15.780;2024-01-16T05:07:24;10.70;75.10
80540;DHT22;69869;48.036;15.780;2024-01-16T05:09:50;10.70;75.10
80540;DHT22;69869;48.036;15.780;2024-01-16T05:12:15;10.70;75.10
80540;DHT22;69869;48.036;15.780;2024-01-16T05:14:41;10.70;75.10
80540;DHT22;69869;48.036;15.780;2024-01-16T05:17:06;10.70;75.10
80540;DHT22;69869;48.036;15.780;2024-01-16T05:19:33;10.70;75.00
80540;DHT22;69869;48.036;15.780;2024-01-16T05:21:59;10.70;75.00
80540;DHT22;69869;48.036;15.780;2024-01-16T05:24:24;10.70;75.00
80540;DHT22;69869;48.036;15.780;2024-01-16T05:26:50;10.70;75.00
80540;DHT22;69869;48.036;15.780;2024-01-16T05:29:16;10.70;75.00
80540;DHT22;69869;48.036;15.780;2024-01-16T05:31:42;10.70;75.00
80540;DHT22;69869;48.036;15.780;2024-01-16T05:34:09;10.70;75.00
80540;DHT22;69869;48.036;15.780;2024-01-16T05:36:35;10.70;75.00
80540;DHT22;69869;48.036;15.780;2024-01-16T05:39:01;10.70;75.00
80540;DHT22;69869;48.036;15.780;2024-01-16T05:41:27;10.70;75.00
80540;DHT22;69869;48.036;15.780;2024-01-16T05:43:53;10.70;74.90
80540;DHT22;69869;48.036;15.780;2024-01-16T05:46:19;10.70;75.00
80540;DHT22;69869;48.036;15.780;2024-01-16T05:48:44;10.70;74.90
80540;DHT22;69869;48.036;15.780;2024-01-16T05:51:10;10.70;74.90
80540;DHT22;69869;48.036;15.780;2024-01-16T05:53:36;10.70;75.10
80540;DHT22;69869;48.036;15.780;2024-01-16T05:56:01;10.70;75.00
80540;DHT22;69869;48.036;15.780;2024-01-16T05:58:27;10.70;75.00
80540;DHT22;69869;48.036;15.780;2024-01-16T06:00:52;10.70;74.90
80540;DHT22;69869;48.036;15.780;2024-01-16T06:03:18;10.70;75.00
80540;DHT22;69869;48.036;15.780;2024-01-16T06:05:44;10.70;74.90
80540;DHT22;69869;48.036;15.780;2024-01-16T06:08:10;10.70;74.80
80540;DHT22;69869;48.036;15.780;2024-01-16T06:10:35;10.70;74.90
80540;DHT22;69869;48.036;15.780;2024-01-16T06:13:01;10.70;75.40
80540;DHT22;69869;48.036;15.780;2024-01-16T06:15:26;10.70;74.70
80540;DHT22;69869;48.036;15.780;2024-01-16T06:17:52;10.70;74.80
80540;DHT22;69869;48.036;15.780;2024-01-16T06:20:18;10.70;74.90
80540;DHT22;69869;48.036;15.780;2024-01-16T06:22:43;10.70;74.80
80540;DHT22;69869;48.036;15.780;2024-01-16T06:25:09;10.70;74.80
80540;DHT22;69869;48.036;15.780;2024-01-16T06:27:35;10.70;74.90
80540;DHT22;69869;48.036;15.780;2024-01-16T06:30:00;10.70;74.80
80540;DHT22;69869;48.036;15.780;2024-01-16T06:32:26;10.70;74.80
80540;DHT22;69869;48.036;15.780;2024-01-16T06:34:52;10.70;74.80
80540;DHT22;69869;48.036;15.780;2024-01-16T06:37:17;10.70;75.00
80540;DHT22;69869;48.036;15.780;2024-01-16T06:39:43;10.70;74.90
80540;DHT22;69869;48.036;15.780;2024-01-16T06:42:08;10.70;74.80
80540;DHT22;69869;48.036;15.780;2024-01-16T06:44:34;10.70;74.80
80540;DHT22;69869;48.036;15.780;2024-01-16T06:47:00;10.70;74.80
80540;DHT22;69869;48.036;15.780;2024-01-16T06:49:25;10.70;74.80
80540;DHT22;69869;48.036;15.780;2024-01-16T06:51:52;10.70;74.80
80540;DHT22;69869;48.036;15.780;2024-01-16T06:54:18;10.70;74.80
80540;DHT22;69869;48.036;15.780;2024-01-16T06:56:45;10.70;74.80
80540;DHT22;69869;48.036;15.780;2024-01-16T06:59:11;10.70;74.80
80540;DHT22;69869;48.036;15.780;2024-01-16T07:01:37;10.70;74.80
80540;DHT22;69869;48.036;15.780;2024-01-16T07:04:02;10.70;74.90
80540;DHT22;69869;48.036;15.780;2024-01-16T07:06:28;10.70;74.90
80540;DHT22;69869;48.036;15.780;2024-01-16T07:08:54;10.70;74.80
80540;DHT22;69869;48.036;15.780;2024-01-16T07:11:20;10.70;74.90
80540;DHT22;69869;48.036;15.780;2024-01-16T07:13:46;10.70;74.80
80540;DHT22;69869;48.036;15.780;2024-01-16T07:16:12;10.70;74.80
80540;DHT22;69869;48.036;15.780;2024-01-16T07:18:38;10.70;74.80
80540;DHT22;69869;48.036;15.780;2024-01-16T07:21:16;10.70;74.80
80540;DHT22;69869;48.036;15.780;2024-01-16T07:23:41;10.70;75.30
80540;DHT22;69869;48.036;15.780;2024-01-16T07:26:07;10.70;74.70
80540;DHT22;69869;48.036;15.780;2024-01-16T07:28:33;10.70;74.80
80540;DHT22;69869;48.036;15.780;2024-01-16T07:30:58;10.70;74.70
80540;DHT22;69869;48.036;15.780;2024-01-16T07:33:24;10.70;74.80
80540;DHT22;69869;48.036;15.780;2024-01-16T07:35:50;10.70;74.70
80540;DHT22;69869;48.036;15.780;2024-01-16T07:38:15;10.70;74.80
80540;DHT22;69869;48.036;15.780;2024-01-16T07:40:41;10.80;74.80
80540;DHT22;69869;48.036;15.780;2024-01-16T07:43:06;10.70;74.70
80540;DHT22;69869;48.036;15.780;2024-01-16T07:45:32;10.70;74.70
80540;DHT22;69869;48.036;15.780;2024-01-16T07:47:58;10.70;74.80
80540;DHT22;69869;48.036;15.780;2024-01-16T07:50:23;10.70;74.70
80540;DHT22;69869;48.036;15.780;2024-01-16T07:52:49;10.70;74.70
80540;DHT22;69869;48.036;15.780;2024-01-16T07:55:15;10.70;74.70
80540;DHT22;69869;48.036;15.780;2024-01-16T07:57:40;10.70;74.60
80540;DHT22;69869;48.036;15.780;2024-01-16T08:00:07;10.70;74.70
80540;DHT22;69869;48.036;15.780;2024-01-16T08:02:37;10.70;74.80
80540;DHT22;69869;48.036;15.780;2024-01-16T08:05:03;10.70;74.70
80540;DHT22;69869;48.036;15.780;2024-01-16T08:07:29;10.70;74.60
80540;DHT22;69869;48.036;15.780;2024-01-16T08:09:55;10.70;74.70
80540;DHT22;69869;48.036;15.780;2024-01-16T08:12:21;10.70;74.70
80540;DHT22;69869;48.036;15.780;2024-01-16T08:14:47;10.70;74.70
80540;DHT22;69869;48.036;15.780;2024-01-16T08:17:12;10.80;74.70
80540;DHT22;69869;48.036;15.780;2024-01-16T08:19:38;10.70;74.60
80540;DHT22;69869;48.036;15.780;2024-01-16T08:22:04;10.70;74.80
80540;DHT22;69869;48.036;15.780;2024-01-16T08:24:30;10.70;74.70
80540;DHT22;69869;48.036;15.780;2024-01-16T08:26:56;10.70;74.70
80540;DHT22;69869;48.036;15.780;2024-01-16T08:29:25;10.70;74.80
80540;DHT22;69869;48.036;15.780;2024-01-16T08:31:51;10.70;74.70
80540;DHT22;69869;48.036;15.780;2024-01-16T08:34:19;10.70;74.70
80540;DHT22;69869;48.036;15.780;2024-01-16T08:36:45;10.70;74.70
80540;DHT22;69869;48.036;15.780;2024-01-16T08:39:11;10.70;74.60
80540;DHT22;69869;48.036;15.780;2024-01-16T08:41:37;10.70;74.60
80540;DHT22;69869;48.036;15.780;2024-01-16T08:44:03;10.70;74.50
80540;DHT22;69869;48.036;15.780;2024-01-16T08:46:29;10.70;74.60
80540;DHT22;69869;48.036;15.780;2024-01-16T08:48:55;10.70;74.50
80540;DHT22;69869;48.036;15.780;2024-01-16T08:51:20;10.70;74.60
80540;DHT22;69869;48.036;15.780;2024-01-16T08:53:46;10.70;74.60
80540;DHT22;69869;48.036;15.780;2024-01-16T08:56:12;10.70;74.50
80540;DHT22;69869;48.036;15.780;2024-01-16T08:58:38;10.70;74.60
80540;DHT22;69869;48.036;15.780;2024-01-16T09:01:04;10.70;75.20
80540;DHT22;69869;48.036;15.780;2024-01-16T09:03:36;10.70;74.50
80540;DHT22;69869;48.036;15.780;2024-01-16T09:06:02;10.70;74.60
80540;DHT22;69869;48.036;15.780;2024-01-16T09:08:28;10.70;74.50
80540;DHT22;69869;48.036;15.780;2024-01-16T09:10:54;10.70;74.70
80540;DHT22;69869;48.036;15.780;2024-01-16T09:13:20;10.70;74.60
80540;DHT22;69869;48.036;15.780;2024-01-16T09:15:49;10.70;74.50
80540;DHT22;69869;48.036;15.780;2024-01-16T09:18:16;10.70;74.50
80540;DHT22;69869;48.036;15.780;2024-01-16T09:20:44;10.70;74.50
80540;DHT22;69869;48.036;15.780;2024-01-16T09:23:10;10.70;74.60
80540;DHT22;69869;48.036;15.780;2024-01-16T09:25:36;10.70;74.60
80540;DHT22;69869;48.036;15.780;2024-01-16T09:28:02;10.70;74.50
80540;DHT22;69869;48.036;15.780;2024-01-16T09:30:28;10.70;74.40
80540;DHT22;69869;48.036;15.780;2024-01-16T09:32:53;10.70;74.50
80540;DHT22;69869;48.036;15.780;2024-01-16T09:35:19;10.70;74.50
80540;DHT22;69869;48.036;15.780;2024-01-16T09:37:45;10.70;74.40
80540;DHT22;69869;48.036;15.780;2024-01-16T09:40:11;10.70;74.50
80540;DHT22;69869;48.036;15.780;2024-01-16T09:42:37;10.70;74.40
80540;DHT22;69869;48.036;15.780;2024-01-16T09:45:03;10.70;74.50
80540;DHT22;69869;48.036;15.780;2024-01-16T09:47:30;10.70;74.50
80540;DHT22;69869;48.036;15.780;2024-01-16T09:49:59;10.70;74.50
80540;DHT22;69869;48.036;15.780;2024-01-16T09:52:25;10.70;74.50
80540;DHT22;69869;48.036;15.780;2024-01-16T09:54:51;10.70;74.50
80540;DHT22;69869;48.036;15.780;2024-01-16T09:57:19;10.70;74.50
80540;DHT22;69869;48.036;15.780;2024-01-16T09:59:48;10.70;74.40
80540;DHT22;69869;48.036;15.780;2024-01-16T10:02:14;10.70;75.00
80540;DHT22;69869;48.036;15.780;2024-01-16T10:04:43;10.70;74.40
80540;DHT22;69869;48.036;15.780;2024-01-16T10:07:12;10.70;74.30
80540;DHT22;69869;48.036;15.780;2024-01-16T10:09:39;10.70;74.40
80540;DHT22;69869;48.036;15.780;2024-01-16T10:12:06;10.70;74.50
80540;DHT22;69869;48.036;15.780;2024-01-16T10:14:33;10.70;74.50
80540;DHT22;69869;48.036;15.780;2024-01-16T10:17:03;10.70;74.40
80540;DHT22;69869;48.036;15.780;2024-01-16T10:19:35;10.80;74.50
80540;DHT22;69869;48.036;15.780;2024-01-16T10:22:06;10.70;74.50
80540;DHT22;69869;48.036;15.780;2024-01-16T10:24:32;10.70;74.40
80540;DHT22;69869;48.036;15.780;2024-01-16T10:27:01;10.70;74.30
80540;DHT22;69869;48.036;15.780;2024-01-16T10:29:29;10.70;74.30
80540;DHT22;69869;48.036;15.780;2024-01-16T10:31:57;10.70;74.20
80540;DHT22;69869;48.036;15.780;2024-01-16T10:34:23;10.70;74.20
80540;DHT22;69869;48.036;15.780;2024-01-16T10:36:58;10.70;74.10
80540;DHT22;69869;48.036;15.780;2024-01-16T10:39:24;10.70;74.20
80540;DHT22;69869;48.036;15.780;2024-01-16T10:41:57;10.70;74.30
80540;DHT22;69869;48.036;15.780;2024-01-16T10:44:23;10.70;74.20
80540;DHT22;69869;48.036;15.780;2024-01-16T10:46:49;10.70;74.20
80540;DHT22;69869;48.036;15.780;2024-01-16T10:49:15;10.70;74.30
80540;DHT22;69869;48.036;15.780;2024-01-16T10:51:43;10.70;74.30
80540;DHT22;69869;48.036;15.780;2024-01-16T10:54:12;10.70;74.30
80540;DHT22;69869;48.036;15.780;2024-01-16T10:56:44;10.70;74.30
80540;DHT22;69869;48.036;15.780;2024-01-16T10:59:18;10.70;74.40
80540;DHT22;69869;48.036;15.780;2024-01-16T11:01:56;10.70;74.30
80540;DHT22;69869;48.036;15.780;2024-01-16T11:04:24;10.70;74.20
80540;DHT22;69869;48.036;15.780;2024-01-16T11:06:52;10.80;74.40
80540;DHT22;69869;48.036;15.780;2024-01-16T11:09:18;10.70;74.20
80540;DHT22;69869;48.036;15.780;2024-01-16T11:11:44;10.70;74.20
80540;DHT22;69869;48.036;15.780;2024-01-16T11:14:12;10.70;74.30
80540;DHT22;69869;48.036;15.780;2024-01-16T11:16:39;10.70;74.40
80540;DHT22;69869;48.036;15.780;2024-01-16T11:19:08;10.70;74.40
80540;DHT22;69869;48.036;15.780;2024-01-16T11:21:38;10.70;74.40
80540;DHT22;69869;48.036;15.780;2024-01-16T11:24:04;10.70;74.30
80540;DHT22;69869;48.036;15.780;2024-01-16T11:26:32;10.80;74.60
80540;DHT22;69869;48.036;15.780;2024-01-16T11:31:44;10.70;74.40
80540;DHT22;69869;48.036;15.780;2024-01-16T11:34:10;10.70;74.40
80540;DHT22;69869;48.036;15.780;2024-01-16T11:39:23;10.80;74.50
80540;DHT22;69869;48.036;15.780;2024-01-16T11:47:09;10.70;74.50
80540;DHT22;69869;48.036;15.780;2024-01-16T11:49:40;10.70;74.50
80540;DHT22;69869;48.036;15.780;2024-01-16T11:52:06;10.70;74.50
80540;DHT22;69869;48.036;15.780;2024-01-16T11:54:33;10.70;74.50
80540;DHT22;69869;48.036;15.780;2024-01-16T12:00:03;10.80;74.60
80540;DHT22;69869;48.036;15.780;2024-01-16T12:02:53;10.70;74.50
80540;DHT22;69869;48.036;15.780;2024-01-16T12:05:20;10.70;74.50
80540;DHT22;69869;48.036;15.780;2024-01-16T12:07:53;10.70;74.50
80540;DHT22;69869;48.036;15.780;2024-01-16T12:10:23;10.70;74.50
80540;DHT22;69869;48.036;15.780;2024-01-16T12:12:50;10.70;74.50
80540;DHT22;69869;48.036;15.780;2024-01-16T12:15:20;10.70;74.50
80540;DHT22;69869;48.036;15.780;2024-01-16T12:17:56;10.80;74.60
80540;DHT22;69869;48.036;15.780;2024-01-16T12:20:24;10.80;74.60
80540;DHT22;69869;48.036;15.780;2024-01-16T12:22:57;10.70;74.60
80540;DHT22;69869;48.036;15.780;2024-01-16T12:25:24;10.80;74.60
80540;DHT22;69869;48.036;15.780;2024-01-16T12:28:00;10.80;74.60
80540;DHT22;69869;48.036;15.780;2024-01-16T12:30:27;10.80;74.70
80540;DHT22;69869;48.036;15.780;2024-01-16T12:33:06;10.80;74.60
80540;DHT22;69869;48.036;15.780;2024-01-16T12:35:36;10.80;74.60
80540;DHT22;69869;48.036;15.780;2024-01-16T12:38:06;10.70;74.40
80540;DHT22;69869;48.036;15.780;2024-01-16T12:40:32;10.70;74.50
80540;DHT22;69869;48.036;15.780;2024-01-16T12:43:03;10.70;74.50
80540;DHT22;69869;48.036;15.780;2024-01-16T12:45:28;10.70;74.50
80540;DHT22;69869;48.036;15.780;2024-01-16T12:47:55;10.80;74.60
80540;DHT22;69869;48.036;15.780;2024-01-16T12:50:25;10.80;74.90
80540;DHT22;69869;48.036;15.780;2024-01-16T12:53:21;10.80;74.60
80540;DHT22;69869;48.036;15.780;2024-01-16T12:55:57;10.70;74.50
80540;DHT22;69869;48.036;15.780;2024-01-16T12:58:24;10.70;74.50
80540;DHT22;69869;48.036;15.780;2024-01-16T13:00:52;10.80;74.60
80540;DHT22;69869;48.036;15.780;2024-01-16T13:03:22;10.80;74.60
80540;DHT22;69869;48.036;15.780;2024-01-16T13:06:00;10.80;74.60
80540;DHT22;69869;48.036;15.780;2024-01-16T13:08:26;10.80;74.60
80540;DHT22;69869;48.036;15.780;2024-01-16T13:11:06;10.80;74.60
80540;DHT22;69869;48.036;15.780;2024-01-16T13:13:32;10.80;74.60
80540;DHT22;69869;48.036;15.780;2024-01-16T13:15:58;10.80;74.50
80540;DHT22;69869;48.036;15.780;2024-01-16T13:18:26;10.80;74.60
80540;DHT22;69869;48.036;15.780;2024-01-16T13:20:54;10.70;74.50
80540;DHT22;69869;48.036;15.780;2024-01-16T13:23:21;10.80;74.60
80540;DHT22;69869;48.036;15.780;2024-01-16T13:25:48;10.80;74.60
80540;DHT22;69869;48.036;15.780;2024-01-16T13:28:18;10.80;74.70
80540;DHT22;69869;48.036;15.780;2024-01-16T13:30:46;10.80;74.60
80540;DHT22;69869;48.036;15.780;2024-01-16T13:33:12;10.80;74.60
80540;DHT22;69869;48.036;15.780;2024-01-16T13:35:45;10.80;74.60
80540;DHT22;69869;48.036;15.780;2024-01-16T13:38:14;10.80;74.60
80540;DHT22;69869;48.036;15.780;2024-01-16T13:40:41;10.70;74.50
80540;DHT22;69869;48.036;15.780;2024-01-16T13:43:07;10.80;74.60
80540;DHT22;69869;48.036;15.780;2024-01-16T13:45:33;10.80;74.60
80540;DHT22;69869;48.036;15.780;2024-01-16T13:48:01;10.80;74.60
80540;DHT22;69869;48.036;15.780;2024-01-16T13:50:27;10.80;74.60
80540;DHT22;69869;48.036;15.780;2024-01-16T13:52:53;10.80;74.60
80540;DHT22;69869;48.036;15.780;2024-01-16T13:55:20;10.80;74.60
80540;DHT22;69869;48.036;15.780;2024-01-16T13:57:46;10.80;74.50
80540;DHT22;69869;48.036;15.780;2024-01-16T14:00:12;10.80;74.70
80540;DHT22;69869;48.036;15.780;2024-01-16T14:02:43;10.80;74.60
80540;DHT22;69869;48.036;15.780;2024-01-16T14:05:09;10.70;74.50
80540;DHT22;69869;48.036;15.780;2024-01-16T14:07:39;10.80;74.60
80540;DHT22;69869;48.036;15.780;2024-01-16T14:10:07;10.70;74.50
80540;DHT22;69869;48.036;15.780;2024-01-16T14:12:35;10.80;74.60
80540;DHT22;69869;48.036;15.780;2024-01-16T14:15:01;10.70;74.50
80540;DHT22;69869;48.036;15.780;2024-01-16T14:17:30;10.80;74.60
80540;DHT22;69869;48.036;15.780;2024-01-16T14:19:56;10.70;74.50
80540;DHT22;69869;48.036;15.780;2024-01-16T14:22:21;10.70;74.50
80540;DHT22;69869;48.036;15.780;2024-01-16T14:24:47;10.70;74.50
80540;DHT22;69869;48.036;15.780;2024-01-16T14:27:16;10.70;74.50
80540;DHT22;69869;48.036;15.780;2024-01-16T14:29:42;10.70;74.50
80540;DHT22;69869;48.036;15.780;2024-01-16T14:32:08;10.70;74.60
80540;DHT22;69869;48.036;15.780;2024-01-16T14:34:34;10.80;74.50
80540;DHT22;69869;48.036;15.780;2024-01-16T14:36:59;10.80;74.60
80540;DHT22;69869;48.036;15.780;2024-01-16T14:39:25;10.70;74.50
80540;DHT22;69869;48.036;15.780;2024-01-16T14:41:50;10.70;74.60
80540;DHT22;69869;48.036;15.780;2024-01-16T14:44:19;10.80;74.60
80540;DHT22;69869;48.036;15.780;2024-01-16T14:46:44;10.80;74.60
80540;DHT22;69869;48.036;15.780;2024-01-16T14:49:10;10.80;74.60
80540;DHT22;69869;48.036;15.780;2024-01-16T14:51:36;10.80;74.50
80540;DHT22;69869;48.036;15.780;2024-01-16T14:54:03;10.80;74.60
80540;DHT22;69869;48.036;15.780;2024-01-16T14:56:30;10.80;74.50
80540;DHT22;69869;48.036;15.780;2024-01-16T14:58:56;10.80;74.50
80540;DHT22;69869;48.036;15.780;2024-01-16T15:01:25;10.80;74.60
80540;DHT22;69869;48.036;15.780;2024-01-16T15:03:50;10.80;74.60
80540;DHT22;69869;48.036;15.780;2024-01-16T15:06:16;10.80;74.60
80540;DHT22;69869;48.036;15.780;2024-01-16T15:08:42;10.80;74.60
80540;DHT22;69869;48.036;15.780;2024-01-16T15:11:08;10.70;74.50
80540;DHT22;69869;48.036;15.780;2024-01-16T15:13:34;10.80;74.70
80540;DHT22;69869;48.036;15.780;2024-01-16T15:16:00;10.80;74.60
80540;DHT22;69869;48.036;15.780;2024-01-16T15:18:26;10.80;74.60
80540;DHT22;69869;48.036;15.780;2024-01-16T15:20:53;10.80;74.60
80540;DHT22;69869;48.036;15.780;2024-01-16T15:23:18;10.80;74.70
80540;DHT22;69869;48.036;15.780;2024-01-16T15:25:44;10.70;74.60
80540;DHT22;69869;48.036;15.780;2024-01-16T15:28:10;10.80;74.70